createdAt,value
2023-01-22T00:01:51.178Z,45.00
2023-01-22T00:04:20.114Z,45.05
2023-01-22T00:06:49.622Z,44.74
2023-01-22T00:09:18.227Z,45.28
2023-01-22T00:11:48.528Z,44.81
2023-01-22T00:14:17.536Z,45.70
2023-01-22T00:16:47.046Z,45.59
2023-01-22T00:19:16.032Z,45.02
2023-01-22T00:21:45.077Z,45.42
2023-01-22T00:24:14.337Z,45.46
2023-01-22T00:26:43.041Z,45.77
2023-01-22T00:29:14.256Z,45.68
2023-01-22T00:31:43.052Z,46.15
2023-01-22T00:34:11.793Z,45.60
2023-01-22T00:36:42.577Z,45.72
2023-01-22T00:39:12.508Z,45.81
2023-01-22T00:41:42.174Z,46.70
2023-01-22T00:44:11.088Z,46.99
2023-01-22T00:46:41.055Z,47.22
2023-01-22T00:49:09.810Z,47.42
2023-01-22T00:51:39.724Z,47.30
2023-01-22T00:54:09.745Z,47.54
2023-01-22T00:56:38.550Z,47.38
2023-01-22T00:59:10.611Z,47.68
2023-01-22T01:01:41.149Z,47.25
2023-01-22T01:04:09.822Z,47.57
2023-01-22T01:06:38.395Z,48.05
2023-01-22T01:09:06.973Z,47.94
2023-01-22T01:11:37.283Z,48.16
2023-01-22T01:14:06.146Z,48.44
2023-01-22T01:16:34.622Z,48.05
2023-01-22T01:19:08.226Z,48.24
2023-01-22T01:21:36.967Z,48.50
2023-01-22T01:24:06.509Z,48.38
2023-01-22T01:26:37.176Z,48.22
2023-01-22T01:29:08.251Z,48.21
2023-01-22T01:31:38.611Z,48.22
2023-01-22T01:34:09.051Z,48.58
2023-01-22T01:36:48.808Z,48.35
2023-01-22T01:39:18.835Z,48.16
2023-01-22T01:41:50.522Z,48.29
2023-01-22T01:44:22.779Z,48.08
2023-01-22T01:46:54.278Z,48.67
2023-01-22T01:49:29.820Z,48.78
2023-01-22T01:52:01.740Z,49.30
2023-01-22T01:54:32.592Z,49.99
2023-01-22T01:57:08.476Z,49.78
2023-01-22T01:59:37.602Z,49.47
2023-01-22T02:02:08.159Z,49.24
2023-01-22T02:04:41.460Z,49.46
2023-01-22T02:07:10.342Z,49.54
2023-01-22T02:09:40.795Z,49.32
2023-01-22T02:12:10.352Z,49.46
2023-01-22T02:14:41.771Z,49.04
2023-01-22T02:17:12.911Z,48.74
2023-01-22T02:19:45.147Z,48.33
2023-01-22T02:22:21.665Z,48.89
2023-01-22T02:24:50.631Z,48.46
2023-01-22T02:27:20.129Z,47.93
2023-01-22T02:29:50.092Z,48.25
2023-01-22T02:32:18.660Z,47.89
2023-01-22T02:34:48.724Z,47.66
2023-01-22T02:37:18.709Z,48.16
2023-01-22T02:39:47.265Z,47.97
2023-01-22T02:42:16.951Z,47.94
2023-01-22T02:44:50.329Z,47.91
2023-01-22T02:47:22.309Z,47.16
2023-01-22T02:49:50.947Z,46.81
2023-01-22T02:52:22.047Z,47.05
2023-01-22T02:54:50.619Z,46.60
2023-01-22T02:57:20.269Z,46.91
2023-01-22T02:59:49.884Z,46.71
2023-01-22T03:02:18.933Z,46.61
2023-01-22T03:04:51.313Z,46.64
2023-01-22T03:07:21.460Z,46.52
2023-01-22T03:09:51.040Z,46.37
2023-01-22T03:12:19.588Z,46.88
2023-01-22T03:15:06.655Z,46.66
2023-01-22T03:17:52.707Z,46.55
2023-01-22T03:20:40.824Z,46.63
2023-01-22T03:23:10.864Z,47.28
2023-01-22T03:25:40.395Z,46.97
2023-01-22T03:28:18.821Z,47.26
2023-01-22T03:30:55.260Z,47.20
2023-01-22T03:33:24.718Z,46.83
2023-01-22T03:35:53.237Z,46.86
2023-01-22T03:38:24.012Z,46.94
2023-01-22T03:40:53.865Z,46.73
2023-01-22T03:43:24.361Z,46.62
2023-01-22T03:45:54.173Z,47.04
2023-01-22T03:48:24.443Z,46.60
2023-01-22T03:50:53.509Z,46.52
2023-01-22T03:53:23.569Z,47.00
2023-01-22T03:56:02.595Z,46.74
2023-01-22T03:58:34.200Z,46.90
2023-01-22T04:01:07.358Z,47.15
2023-01-22T04:03:36.953Z,47.02
2023-01-22T04:06:06.527Z,47.32
2023-01-22T04:08:38.874Z,47.19
2023-01-22T04:11:08.722Z,47.78
2023-01-22T04:13:39.561Z,48.02
2023-01-22T04:16:09.603Z,47.65
2023-01-22T04:19:07.145Z,47.69
2023-01-22T04:21:53.809Z,47.86
2023-01-22T04:24:23.792Z,47.93
2023-01-22T04:26:53.043Z,47.70
2023-01-22T04:29:24.256Z,47.57
2023-01-22T04:31:53.972Z,47.59
2023-01-22T04:34:40.670Z,47.78
2023-01-22T04:37:21.673Z,47.48
2023-01-22T04:39:51.598Z,47.72
2023-01-22T04:42:20.245Z,47.38
2023-01-22T04:44:49.829Z,47.62
2023-01-22T04:47:19.371Z,47.33
2023-01-22T04:49:48.932Z,47.54
2023-01-22T04:52:17.951Z,47.43
2023-01-22T04:54:47.517Z,47.40
2023-01-22T04:57:18.552Z,47.44
2023-01-22T04:59:48.923Z,47.41
2023-01-22T05:02:19.553Z,47.61
2023-01-22T05:04:48.281Z,46.95
2023-01-22T05:07:16.882Z,47.33
2023-01-22T05:09:45.774Z,47.94
2023-01-22T05:12:14.636Z,48.24
2023-01-22T05:14:45.652Z,48.20
2023-01-22T05:17:15.599Z,48.20
2023-01-22T05:19:44.058Z,47.89
2023-01-22T05:22:17.949Z,47.79
2023-01-22T05:24:46.507Z,47.52
2023-01-22T05:27:15.896Z,47.38
2023-01-22T05:29:55.547Z,47.65
2023-01-22T05:32:39.596Z,47.60
2023-01-22T05:35:08.763Z,47.74
2023-01-22T05:37:39.572Z,47.99
2023-01-22T05:40:12.592Z,47.95
2023-01-22T05:42:41.246Z,48.11
2023-01-22T05:45:13.103Z,47.74
2023-01-22T05:48:04.251Z,48.02
2023-01-22T05:50:38.954Z,48.03
2023-01-22T05:53:11.585Z,48.01
2023-01-22T05:55:40.513Z,47.96
2023-01-22T05:58:09.999Z,48.22
2023-01-22T06:00:40.145Z,48.02
2023-01-22T06:03:11.404Z,48.64
2023-01-22T06:05:48.943Z,48.41
2023-01-22T06:08:18.551Z,48.44
2023-01-22T06:10:52.286Z,48.51
2023-01-22T06:13:21.022Z,48.18
2023-01-22T06:15:55.377Z,48.56
2023-01-22T06:18:53.280Z,48.56
2023-01-22T06:21:21.947Z,48.68
2023-01-22T06:23:50.709Z,48.39
2023-01-22T06:26:19.798Z,48.89
2023-01-22T06:28:49.656Z,48.80
2023-01-22T06:31:20.907Z,48.89
2023-01-22T06:33:50.389Z,48.59
2023-01-22T06:36:18.854Z,48.35
2023-01-22T06:38:48.555Z,49.49
2023-01-22T06:41:21.421Z,48.86
2023-01-22T06:43:56.446Z,48.58
2023-01-22T06:46:28.678Z,48.23
2023-01-22T06:49:05.148Z,48.42
2023-01-22T06:51:34.323Z,48.22
2023-01-22T06:54:03.184Z,49.11
2023-01-22T06:56:31.766Z,48.77
2023-01-22T06:59:02.345Z,49.09
2023-01-22T07:01:32.397Z,48.75
2023-01-22T07:04:02.342Z,48.56
2023-01-22T07:06:31.913Z,48.80
2023-01-22T07:09:00.749Z,48.62
2023-01-22T07:11:29.307Z,48.82
2023-01-22T07:13:58.236Z,48.59
2023-01-22T07:16:26.932Z,48.72
2023-01-22T07:18:58.219Z,48.23
2023-01-22T07:21:28.531Z,48.80
2023-01-22T07:23:57.075Z,48.60
2023-01-22T07:26:25.554Z,48.79
2023-01-22T07:28:54.069Z,49.23
2023-01-22T07:31:22.727Z,48.91
2023-01-22T07:33:52.226Z,48.83
2023-01-22T07:36:22.306Z,48.90
2023-01-22T07:38:50.845Z,48.97
2023-01-22T07:41:25.863Z,49.13
2023-01-22T07:43:57.748Z,48.87
2023-01-22T07:46:26.627Z,48.72
2023-01-22T07:48:57.980Z,48.76
2023-01-22T07:51:35.101Z,48.38
2023-01-22T07:54:03.667Z,48.57
2023-01-22T07:56:32.199Z,48.59
2023-01-22T07:59:00.848Z,48.16
2023-01-22T08:01:29.624Z,48.05
2023-01-22T08:03:58.452Z,46.96
2023-01-22T08:06:27.065Z,47.06
2023-01-22T08:08:59.138Z,46.92
2023-01-22T08:11:27.735Z,46.28
2023-01-22T08:13:56.347Z,46.40
2023-01-22T08:16:25.144Z,44.59
2023-01-22T08:18:55.565Z,44.94
2023-01-22T08:21:24.049Z,44.80
2023-01-22T08:23:53.278Z,43.07
2023-01-22T08:26:23.389Z,42.69
2023-01-22T08:28:51.883Z,42.75
2023-01-22T08:31:27.855Z,42.28
2023-01-22T08:33:59.996Z,41.65
2023-01-22T08:36:28.789Z,41.28
2023-01-22T08:38:57.386Z,40.78
2023-01-22T08:41:27.369Z,40.86
2023-01-22T08:43:55.892Z,40.88
2023-01-22T08:46:24.727Z,40.35
2023-01-22T08:48:53.355Z,40.40
2023-01-22T08:51:23.604Z,39.30
2023-01-22T08:53:52.349Z,39.66
2023-01-22T08:56:20.833Z,39.64
2023-01-22T08:58:51.957Z,40.04
2023-01-22T09:01:21.611Z,39.59
2023-01-22T09:03:50.111Z,40.29
2023-01-22T09:06:18.873Z,39.63
2023-01-22T09:08:48.924Z,39.59
2023-01-22T09:11:17.599Z,39.29
2023-01-22T09:13:46.800Z,40.06
2023-01-22T09:16:16.964Z,39.58
2023-01-22T09:18:45.593Z,40.07
2023-01-22T09:21:14.021Z,39.85
2023-01-22T09:23:42.647Z,39.97
2023-01-22T09:26:11.390Z,41.11
2023-01-22T09:28:40.101Z,40.27
2023-01-22T09:31:08.671Z,40.53
2023-01-22T09:33:38.649Z,40.07
2023-01-22T09:36:11.495Z,40.16
2023-01-22T09:38:40.198Z,39.59
2023-01-22T09:41:17.457Z,40.14
2023-01-22T09:43:52.117Z,40.55
2023-01-22T09:46:26.581Z,39.91
2023-01-22T09:48:59.156Z,39.84
2023-01-22T09:51:28.704Z,39.58
2023-01-22T09:53:59.869Z,40.35
2023-01-22T09:56:35.341Z,39.00
2023-01-22T09:59:06.958Z,40.23
2023-01-22T10:01:36.639Z,39.68
2023-01-22T10:04:20.819Z,39.53
2023-01-22T10:06:51.581Z,39.64
2023-01-22T10:09:21.921Z,39.76
2023-01-22T10:11:53.007Z,39.82
2023-01-22T10:14:24.022Z,39.37
2023-01-22T10:16:53.208Z,38.49
2023-01-22T10:19:28.910Z,38.84
2023-01-22T10:22:01.982Z,38.86
2023-01-22T10:24:30.823Z,38.23
2023-01-22T10:26:59.859Z,38.69
2023-01-22T10:29:33.613Z,38.90
2023-01-22T10:32:03.620Z,38.17
2023-01-22T10:34:36.062Z,39.30
2023-01-22T10:37:13.663Z,38.05
2023-01-22T10:39:43.186Z,38.84
2023-01-22T10:42:18.070Z,38.25
2023-01-22T10:44:47.089Z,38.50
2023-01-22T10:47:21.134Z,38.06
2023-01-22T10:50:04.561Z,38.43
2023-01-22T10:52:40.210Z,38.38
2023-01-22T10:55:20.713Z,38.29
2023-01-22T10:57:55.510Z,38.07
2023-01-22T11:00:29.484Z,39.03
2023-01-22T11:02:58.051Z,37.65
2023-01-22T11:05:33.987Z,37.34
2023-01-22T11:08:15.381Z,36.50
2023-01-22T11:10:49.662Z,36.79
2023-01-22T11:13:23.335Z,36.92
2023-01-22T11:15:58.798Z,37.74
2023-01-22T11:18:33.289Z,36.66
2023-01-22T11:21:06.896Z,36.26
2023-01-22T11:23:46.519Z,36.65
2023-01-22T11:30:11.360Z,36.88
2023-01-22T11:32:52.688Z,36.88
2023-01-22T11:35:28.778Z,36.83
2023-01-22T11:38:26.409Z,37.02
2023-01-22T11:41:23.896Z,36.70
2023-01-22T11:44:04.916Z,36.68
2023-01-22T11:46:51.671Z,36.36
2023-01-22T11:49:31.222Z,36.81
2023-01-22T11:52:11.254Z,37.85
2023-01-22T11:54:56.440Z,38.36
2023-01-22T11:57:31.570Z,36.21
2023-01-22T12:00:27.441Z,37.21
2023-01-22T12:03:24.420Z,37.54
2023-01-22T12:06:06.726Z,37.01
2023-01-22T12:08:50.150Z,35.97
2023-01-22T12:11:33.391Z,37.25
2023-01-22T12:14:16.745Z,36.84
2023-01-22T12:24:42.816Z,37.95
2023-01-22T12:27:19.670Z,38.28
2023-01-22T12:29:54.658Z,37.92
2023-01-22T12:32:24.409Z,38.19
2023-01-22T12:34:57.395Z,37.43
2023-01-22T12:37:33.146Z,37.52
2023-01-22T12:40:21.604Z,36.89
2023-01-22T12:43:01.543Z,36.42
2023-01-22T12:45:40.637Z,36.62
2023-01-22T12:48:22.076Z,36.46
2023-01-22T12:50:52.747Z,36.49
2023-01-22T12:53:25.931Z,37.07
2023-01-22T12:56:06.195Z,37.70
2023-01-22T12:58:38.365Z,37.30
2023-01-22T13:01:22.297Z,37.25
2023-01-22T13:03:59.844Z,37.52
2023-01-22T13:06:34.814Z,37.93
2023-01-22T13:09:04.338Z,37.56
2023-01-22T13:11:35.474Z,37.25
2023-01-22T13:14:20.482Z,37.56
2023-01-22T13:16:55.212Z,36.85
2023-01-22T13:19:26.225Z,37.40
2023-01-22T13:21:58.173Z,36.70
2023-01-22T13:24:26.841Z,37.65
2023-01-22T13:26:57.255Z,37.26
2023-01-22T13:29:29.316Z,36.81
2023-01-22T13:32:00.739Z,37.40
2023-01-22T13:34:30.247Z,36.99
2023-01-22T13:37:00.421Z,37.31
2023-01-22T13:39:31.081Z,37.53
2023-01-22T13:42:02.952Z,37.56
2023-01-22T13:44:37.078Z,37.61
2023-01-22T13:47:06.385Z,37.63
2023-01-22T13:49:42.880Z,37.59
2023-01-22T13:52:21.434Z,37.39
2023-01-22T13:54:59.227Z,37.10
2023-01-22T13:57:27.923Z,37.73
2023-01-22T13:59:59.694Z,38.02
2023-01-22T14:02:31.260Z,37.67
2023-01-22T14:05:00.532Z,38.46
2023-01-22T14:07:31.207Z,37.83
2023-01-22T14:10:13.728Z,37.65
2023-01-22T14:12:42.765Z,37.50
2023-01-22T14:15:21.186Z,37.51
2023-01-22T14:17:50.712Z,38.23
2023-01-22T14:20:19.674Z,38.15
2023-01-22T14:22:49.765Z,37.39
2023-01-22T14:25:18.498Z,37.81
2023-01-22T14:27:49.517Z,37.46
2023-01-22T14:30:22.461Z,38.46
2023-01-22T14:32:51.233Z,37.54
2023-01-22T14:35:21.956Z,38.03
2023-01-22T14:37:50.922Z,38.89
2023-01-22T14:40:21.690Z,38.93
2023-01-22T14:42:51.649Z,39.08
2023-01-22T14:45:22.143Z,39.42
2023-01-22T14:47:52.436Z,38.54
2023-01-22T14:50:21.577Z,39.67
2023-01-22T14:52:52.072Z,38.83
2023-01-22T14:55:21.346Z,38.27
2023-01-22T14:57:49.931Z,38.83
2023-01-22T15:00:21.602Z,38.19
2023-01-22T15:02:50.417Z,38.46
2023-01-22T15:05:19.036Z,38.73
2023-01-22T15:07:48.890Z,37.71
2023-01-22T15:10:18.213Z,38.38
2023-01-22T15:12:49.023Z,37.78
2023-01-22T15:15:18.939Z,38.82
2023-01-22T15:17:51.932Z,39.05
2023-01-22T15:20:20.979Z,38.66
2023-01-22T15:22:50.739Z,38.30
2023-01-22T15:25:20.183Z,38.51
2023-01-22T15:27:48.943Z,38.80
2023-01-22T15:30:18.654Z,39.70
2023-01-22T15:32:48.790Z,38.43
2023-01-22T15:35:17.491Z,38.90
2023-01-22T15:37:47.677Z,39.76
2023-01-22T15:40:18.040Z,40.17
2023-01-22T15:42:46.819Z,39.71
2023-01-22T15:45:17.933Z,39.56
2023-01-22T15:47:46.589Z,39.50
2023-01-22T15:50:20.491Z,39.64
2023-01-22T15:52:54.333Z,39.48
2023-01-22T15:55:23.549Z,39.59
2023-01-22T15:57:52.346Z,39.01
2023-01-22T16:00:22.469Z,40.34
2023-01-22T16:02:51.271Z,39.91
2023-01-22T16:05:21.667Z,39.92
2023-01-22T16:07:52.636Z,40.04
2023-01-22T16:10:21.706Z,39.85
2023-01-22T16:12:50.249Z,40.26
2023-01-22T16:15:19.056Z,39.83
2023-01-22T16:17:47.698Z,40.17
2023-01-22T16:20:16.671Z,40.19
2023-01-22T16:22:46.926Z,40.22
2023-01-22T16:25:15.476Z,40.16
2023-01-22T16:27:44.991Z,39.76
2023-01-22T16:30:14.860Z,39.91
2023-01-22T16:32:46.160Z,40.85
2023-01-22T16:35:15.079Z,40.76
2023-01-22T16:37:46.763Z,40.50
2023-01-22T16:40:15.589Z,40.05
2023-01-22T16:42:59.257Z,39.90
2023-01-22T16:45:27.898Z,40.16
2023-01-22T16:47:56.983Z,40.53
2023-01-22T16:50:25.647Z,40.27
2023-01-22T16:52:55.592Z,40.75
2023-01-22T16:55:24.695Z,40.90
2023-01-22T16:57:53.674Z,41.50
2023-01-22T17:00:22.777Z,41.26
2023-01-22T17:02:51.430Z,41.15
2023-01-22T17:05:20.075Z,41.28
2023-01-22T17:07:48.476Z,41.88
2023-01-22T17:10:19.148Z,41.26
2023-01-22T17:12:48.090Z,41.33
2023-01-22T17:15:17.599Z,42.24
2023-01-22T17:17:46.116Z,40.28
2023-01-22T17:20:16.285Z,40.66
2023-01-22T17:22:45.041Z,41.84
2023-01-22T17:25:13.724Z,42.21
2023-01-22T17:27:43.716Z,41.48
2023-01-22T17:30:14.361Z,41.66
2023-01-22T17:32:42.976Z,41.86
2023-01-22T17:35:13.627Z,42.21
2023-01-22T17:37:42.257Z,42.26
2023-01-22T17:40:12.194Z,41.94
2023-01-22T17:42:40.743Z,39.83
2023-01-22T17:45:12.866Z,40.70
2023-01-22T17:47:44.539Z,41.14
2023-01-22T17:50:14.244Z,41.52
2023-01-22T17:52:43.019Z,41.89
2023-01-22T17:55:12.592Z,41.86
2023-01-22T17:57:42.163Z,42.67
2023-01-22T18:00:20.478Z,42.84
2023-01-22T18:02:54.521Z,42.17
2023-01-22T18:05:31.866Z,42.72
2023-01-22T18:08:09.203Z,43.16
2023-01-22T18:10:39.396Z,42.70
2023-01-22T18:13:07.893Z,42.81
2023-01-22T18:15:38.885Z,42.63
2023-01-22T18:18:10.259Z,42.77
2023-01-22T18:20:39.467Z,42.46
2023-01-22T18:23:07.990Z,42.73
2023-01-22T18:25:44.501Z,42.93
2023-01-22T18:28:13.796Z,42.65
2023-01-22T18:30:45.080Z,42.86
2023-01-22T18:33:15.153Z,43.21
2023-01-22T18:35:44.009Z,42.87
2023-01-22T18:38:14.228Z,43.42
2023-01-22T18:40:43.260Z,43.08
2023-01-22T18:43:12.951Z,43.29
2023-01-22T18:45:43.673Z,43.23
2023-01-22T18:48:14.521Z,43.26
2023-01-22T18:50:52.481Z,43.74
2023-01-22T18:53:21.172Z,43.66
2023-01-22T18:55:49.664Z,43.38
2023-01-22T18:58:31.588Z,44.09
2023-01-22T19:01:13.665Z,43.78
2023-01-22T19:03:44.670Z,44.08
2023-01-22T19:06:16.253Z,43.64
2023-01-22T19:08:46.587Z,43.81
2023-01-22T19:11:17.503Z,43.94
2023-01-22T19:13:46.501Z,43.94
2023-01-22T19:16:19.018Z,44.29
2023-01-22T19:18:47.853Z,43.86
2023-01-22T19:21:17.978Z,43.82
2023-01-22T19:23:48.152Z,44.11
2023-01-22T19:26:24.561Z,44.32
2023-01-22T19:28:56.450Z,44.25
2023-01-22T19:31:29.756Z,44.21
2023-01-22T19:34:00.721Z,44.69
2023-01-22T19:36:31.251Z,44.55
2023-01-22T19:39:03.572Z,44.67
2023-01-22T19:41:32.611Z,44.42
2023-01-22T19:44:03.964Z,44.35
2023-01-22T19:46:34.609Z,44.78
2023-01-22T19:49:03.559Z,45.07
2023-01-22T19:51:33.211Z,45.00
2023-01-22T19:54:04.812Z,45.55
2023-01-22T19:56:37.098Z,45.72
2023-01-22T19:59:08.751Z,45.77
2023-01-22T20:01:39.568Z,45.94
2023-01-22T20:04:12.685Z,45.79
2023-01-22T20:06:41.724Z,45.78
2023-01-22T20:09:11.432Z,45.79
2023-01-22T20:11:40.825Z,46.25
2023-01-22T20:14:09.387Z,46.28
2023-01-22T20:16:40.931Z,46.49
2023-01-22T20:19:09.550Z,46.42
2023-01-22T20:21:39.233Z,45.92
2023-01-22T20:24:08.691Z,46.04
2023-01-22T20:26:38.296Z,45.89
2023-01-22T20:29:07.043Z,46.29
2023-01-22T20:31:36.542Z,46.06
2023-01-22T20:34:06.866Z,46.12
2023-01-22T20:36:35.988Z,46.12
2023-01-22T20:39:05.315Z,46.26
2023-01-22T20:41:34.535Z,45.88
2023-01-22T20:44:03.391Z,46.11
2023-01-22T20:46:32.170Z,46.17
2023-01-22T20:49:01.302Z,46.37
2023-01-22T20:51:31.361Z,46.32
2023-01-22T20:54:01.059Z,46.35
2023-01-22T20:56:32.874Z,46.44
2023-01-22T20:59:03.365Z,46.39
2023-01-22T21:01:33.580Z,46.43
2023-01-22T21:04:03.845Z,46.80
2023-01-22T21:06:35.859Z,45.84
2023-01-22T21:09:07.262Z,46.72
2023-01-22T21:11:37.485Z,46.47
2023-01-22T21:14:07.802Z,46.79
2023-01-22T21:16:38.476Z,47.01
2023-01-22T21:19:08.961Z,46.91
2023-01-22T21:21:39.079Z,46.73
2023-01-22T21:24:09.565Z,46.59
2023-01-22T21:26:39.476Z,46.41
2023-01-22T21:29:14.235Z,46.54
2023-01-22T21:31:43.603Z,46.57
2023-01-22T21:34:12.953Z,46.00
2023-01-22T21:36:45.336Z,46.61
2023-01-22T21:39:15.671Z,46.48
2023-01-22T21:41:45.856Z,46.78
2023-01-22T21:44:34.603Z,46.90
2023-01-22T21:47:05.156Z,47.13
2023-01-22T21:49:36.328Z,47.61
2023-01-22T21:52:09.632Z,48.08
2023-01-22T21:54:41.545Z,47.57
2023-01-22T21:57:13.037Z,47.58
2023-01-22T21:59:47.892Z,47.73
2023-01-22T22:02:19.834Z,47.83
2023-01-22T22:04:49.551Z,47.38
2023-01-22T22:07:22.521Z,47.35
2023-01-22T22:09:51.263Z,47.54
2023-01-22T22:12:22.479Z,47.65
2023-01-22T22:14:52.223Z,48.32
2023-01-22T22:17:20.817Z,47.88
2023-01-22T22:19:50.641Z,47.86
2023-01-22T22:22:20.501Z,47.99
2023-01-22T22:24:51.073Z,47.93
2023-01-22T22:27:19.993Z,48.10
2023-01-22T22:29:48.595Z,48.37
2023-01-22T22:32:17.376Z,48.15
2023-01-22T22:34:46.894Z,48.25
2023-01-22T22:37:19.286Z,48.37
2023-01-22T22:39:50.312Z,48.17
2023-01-22T22:42:20.168Z,48.22
2023-01-22T22:44:48.912Z,47.94
2023-01-22T22:47:18.570Z,48.40
2023-01-22T22:49:47.578Z,48.61
2023-01-22T22:52:17.240Z,48.86
2023-01-22T22:54:46.039Z,48.42
2023-01-22T22:57:16.523Z,49.13
2023-01-22T22:59:47.189Z,48.96
2023-01-22T23:02:16.816Z,48.96
2023-01-22T23:04:46.570Z,48.77
2023-01-22T23:07:17.505Z,48.43
2023-01-22T23:09:46.182Z,48.63
2023-01-22T23:12:24.137Z,48.55
2023-01-22T23:14:53.912Z,48.67
2023-01-22T23:17:25.666Z,48.83
2023-01-22T23:19:54.405Z,48.75
2023-01-22T23:22:26.076Z,46.70
2023-01-22T23:24:55.911Z,47.24
2023-01-22T23:27:26.009Z,47.71
2023-01-22T23:29:56.123Z,47.63
2023-01-22T23:32:27.094Z,47.84
2023-01-22T23:34:55.864Z,47.98
2023-01-22T23:37:24.374Z,48.10
2023-01-22T23:39:52.980Z,48.74
2023-01-22T23:42:22.717Z,48.40
2023-01-22T23:44:54.037Z,48.47
2023-01-22T23:47:24.677Z,48.89
2023-01-22T23:49:53.206Z,48.92
2023-01-22T23:52:23.134Z,49.86
2023-01-22T23:54:53.931Z,49.84
2023-01-22T23:57:23.582Z,50.24
2023-01-22T23:59:53.749Z,50.15
